Terminal Aerodrome Forecast
Issued by NWS

Home | Current Version | Previous Version | Text Only | Print | Product List | Glossary Off
Versions: 1 2 3 4 5 6 7 8 9 10 11 12 13 14 15 16 17 18

361
FTUS41 KCLE 261726
TAFFDY
TAF
KFDY 261726Z 2618/2718 27012G20KT P6SM SCT020 OVC100
     FM262200 27010KT P6SM SKC
     FM271600 25018G28KT P6SM SKC=

USA.gov is the U.S. government's official web portal to all federal, state and local government web resources and services.